createdAt,value
2022-07-25T00:00:59.502Z,22.89
2022-07-25T00:05:04.729Z,22.88
2022-07-25T00:09:08.182Z,22.85
2022-07-25T00:13:11.662Z,22.80
2022-07-25T00:17:16.576Z,22.76
2022-07-25T00:21:19.701Z,22.71
2022-07-25T00:25:23.232Z,22.64
2022-07-25T00:29:26.962Z,22.60
2022-07-25T00:33:31.654Z,22.57
2022-07-25T00:37:35.064Z,22.53
2022-07-25T00:41:38.918Z,22.50
2022-07-25T00:45:42.173Z,22.51
2022-07-25T00:49:47.145Z,22.50
2022-07-25T00:53:50.279Z,22.50
2022-07-25T00:57:53.322Z,22.49
2022-07-25T01:01:56.902Z,22.45
2022-07-25T01:06:01.886Z,22.42
2022-07-25T01:10:05.974Z,22.37
2022-07-25T01:14:09.855Z,22.32
2022-07-25T01:18:13.448Z,22.26
2022-07-25T01:22:18.510Z,22.21
2022-07-25T01:26:22.364Z,22.14
2022-07-25T01:30:27.546Z,22.11
2022-07-25T01:34:30.833Z,22.07
2022-07-25T01:38:35.908Z,22.02
2022-07-25T01:42:39.396Z,21.99
2022-07-25T01:46:42.635Z,21.96
2022-07-25T01:50:46.423Z,21.94
2022-07-25T01:54:51.625Z,21.92
2022-07-25T01:58:54.776Z,21.88
2022-07-25T02:03:12.167Z,21.87
2022-07-25T02:07:15.691Z,21.85
2022-07-25T02:11:21.017Z,21.84
2022-07-25T02:15:24.361Z,21.82
2022-07-25T02:19:28.064Z,21.81
2022-07-25T02:23:31.508Z,21.80
2022-07-25T02:27:36.699Z,21.80
2022-07-25T02:31:40.251Z,21.77
2022-07-25T02:35:43.942Z,21.76
2022-07-25T02:39:47.274Z,21.71
2022-07-25T02:43:52.307Z,21.67
2022-07-25T02:47:56.054Z,21.60
2022-07-25T02:52:00.295Z,21.54
2022-07-25T02:56:03.851Z,21.48
2022-07-25T03:00:12.105Z,21.43
2022-07-25T03:04:16.295Z,21.37
2022-07-25T03:08:20.228Z,21.32
2022-07-25T03:12:23.778Z,21.30
2022-07-25T03:16:29.104Z,21.28
2022-07-25T03:20:32.683Z,21.26
2022-07-25T03:24:35.977Z,21.26
2022-07-25T03:28:39.489Z,21.27
2022-07-25T03:32:44.613Z,21.32
2022-07-25T03:36:48.085Z,21.36
2022-07-25T03:40:51.320Z,21.42
2022-07-25T03:44:54.817Z,21.52
2022-07-25T03:48:59.723Z,21.61
2022-07-25T03:53:03.284Z,21.67
2022-07-25T03:57:07.535Z,21.71
2022-07-25T04:01:11.111Z,21.74
2022-07-25T04:05:16.008Z,21.76
2022-07-25T04:09:19.500Z,21.78
2022-07-25T04:13:22.857Z,21.78
2022-07-25T04:17:26.554Z,21.80
2022-07-25T04:21:31.327Z,21.81
2022-07-25T04:25:34.758Z,21.82
2022-07-25T04:29:38.281Z,21.85
2022-07-25T04:33:42.629Z,21.89
2022-07-25T04:37:47.406Z,21.93
2022-07-25T04:41:50.768Z,21.99
2022-07-25T04:45:54.589Z,22.04
2022-07-25T04:49:58.047Z,22.12
2022-07-25T04:54:02.523Z,22.21
2022-07-25T04:58:07.063Z,22.29
2022-07-25T05:02:10.620Z,22.38
2022-07-25T05:06:13.745Z,22.47
2022-07-25T05:10:20.882Z,22.56
2022-07-25T05:14:24.497Z,22.64
2022-07-25T05:18:27.584Z,22.74
2022-07-25T05:22:30.736Z,22.83
2022-07-25T05:26:35.625Z,22.93
2022-07-25T05:30:40.056Z,23.04
2022-07-25T05:34:43.512Z,23.13
2022-07-25T05:38:47.176Z,23.23
2022-07-25T05:42:52.508Z,23.34
2022-07-25T05:46:55.701Z,23.43
2022-07-25T05:51:00.729Z,23.55
2022-07-25T05:55:04.426Z,23.65
2022-07-25T05:59:09.049Z,23.76
2022-07-25T06:03:12.359Z,23.88
2022-07-25T06:07:17.098Z,24.02
2022-07-25T06:11:20.792Z,24.22
2022-07-25T06:15:26.728Z,24.43
2022-07-25T06:19:30.843Z,24.65
2022-07-25T06:23:34.386Z,24.90
2022-07-25T06:27:38.984Z,25.18
2022-07-25T06:31:46.365Z,25.53
2022-07-25T06:35:50.824Z,25.99
2022-07-25T06:39:54.385Z,26.56
2022-07-25T06:43:57.431Z,27.17
2022-07-25T06:48:02.366Z,27.79
2022-07-25T06:52:06.094Z,28.41
2022-07-25T06:56:14.351Z,29.03
2022-07-25T07:00:20.569Z,29.65
2022-07-25T07:04:25.348Z,30.29
2022-07-25T07:08:28.867Z,30.91
2022-07-25T07:12:32.626Z,31.39
2022-07-25T07:16:36.730Z,31.79
2022-07-25T07:20:41.986Z,32.18
2022-07-25T07:24:48.175Z,32.58
2022-07-25T07:28:54.863Z,32.91
2022-07-25T07:32:58.711Z,33.20
2022-07-25T07:37:03.781Z,33.45
2022-07-25T07:41:07.485Z,33.62
2022-07-25T07:45:16.332Z,33.84
2022-07-25T07:49:19.560Z,34.10
2022-07-25T08:02:27.568Z,35.33
2022-07-25T08:06:31.272Z,35.72
2022-07-25T08:10:38.429Z,36.12
2022-07-25T08:14:42.005Z,36.49
2022-07-25T08:18:45.636Z,36.86
2022-07-25T08:22:54.477Z,37.20
2022-07-25T08:27:01.695Z,37.45
2022-07-25T08:31:05.378Z,37.58
2022-07-25T08:35:11.457Z,37.72
2022-07-25T08:39:15.263Z,37.88
2022-07-25T08:43:21.487Z,38.01
2022-07-25T08:47:25.109Z,37.99
2022-07-25T08:51:29.420Z,37.97
2022-07-25T08:55:32.968Z,37.99
2022-07-25T08:59:37.878Z,38.01
2022-07-25T09:03:41.436Z,38.07
2022-07-25T09:07:44.654Z,38.28
2022-07-25T09:11:49.006Z,38.58
2022-07-25T09:15:57.113Z,38.83
2022-07-25T09:20:00.761Z,39.07
2022-07-25T09:24:12.336Z,39.31
2022-07-25T09:28:18.216Z,39.55
2022-07-25T09:32:25.909Z,39.77
2022-07-25T09:36:29.616Z,39.96
2022-07-25T09:40:33.272Z,40.10
2022-07-25T09:44:36.436Z,40.20
2022-07-25T09:48:45.909Z,40.30
2022-07-25T09:52:49.801Z,40.36
2022-07-25T09:56:53.942Z,40.40
2022-07-25T10:01:02.617Z,40.44
2022-07-25T10:05:16.313Z,40.45
2022-07-25T10:09:19.938Z,40.50
2022-07-25T10:13:32.648Z,40.59
2022-07-25T10:17:37.110Z,40.58
2022-07-25T10:21:42.445Z,40.45
2022-07-25T10:25:49.105Z,40.34
2022-07-25T10:29:55.752Z,40.34
2022-07-25T10:34:01.622Z,40.31
2022-07-25T10:38:08.101Z,40.25
2022-07-25T10:42:15.794Z,40.19
2022-07-25T10:46:21.495Z,40.22
2022-07-25T10:50:53.580Z,40.38
2022-07-25T10:54:57.522Z,40.62
2022-07-25T10:59:02.613Z,40.83
2022-07-25T11:03:11.468Z,40.97
2022-07-25T11:07:18.584Z,41.15
2022-07-25T11:11:23.424Z,41.34
2022-07-25T11:15:27.337Z,41.50
2022-07-25T11:19:31.397Z,41.67
2022-07-25T11:23:34.873Z,41.81
2022-07-25T11:27:39.776Z,41.90
2022-07-25T11:31:42.997Z,41.95
2022-07-25T11:35:46.163Z,42.00
2022-07-25T11:39:50.027Z,42.03
2022-07-25T11:43:54.953Z,42.09
2022-07-25T11:48:08.269Z,42.16
2022-07-25T11:52:20.710Z,42.24
2022-07-25T12:00:51.312Z,42.39
2022-07-25T12:04:59.263Z,42.45
2022-07-25T12:09:17.997Z,42.46
2022-07-25T12:13:25.857Z,42.38
2022-07-25T12:17:30.679Z,42.24
2022-07-25T12:21:33.775Z,42.16
2022-07-25T12:25:38.382Z,42.22
2022-07-25T12:29:41.555Z,42.37
2022-07-25T12:33:46.479Z,42.58
2022-07-25T12:37:49.786Z,42.77
2022-07-25T12:41:54.694Z,42.92
2022-07-25T12:45:58.288Z,43.00
2022-07-25T12:50:02.893Z,43.01
2022-07-25T12:54:06.589Z,42.97
2022-07-25T12:58:10.479Z,42.88
2022-07-25T13:02:13.909Z,42.80
2022-07-25T13:06:20.923Z,42.76
2022-07-25T13:10:24.124Z,42.82
2022-07-25T13:14:27.508Z,42.93
2022-07-25T13:18:30.891Z,43.01
2022-07-25T13:22:38.056Z,43.01
2022-07-25T13:26:41.738Z,43.01
2022-07-25T13:30:44.842Z,43.05
2022-07-25T13:34:48.220Z,43.07
2022-07-25T13:38:52.800Z,43.06
2022-07-25T13:42:57.369Z,43.09
2022-07-25T13:47:00.605Z,43.10
2022-07-25T13:51:04.489Z,43.10
2022-07-25T13:55:10.559Z,43.16
2022-07-25T13:59:20.367Z,43.02
2022-07-25T14:03:24.284Z,42.88
2022-07-25T14:07:27.738Z,42.87
2022-07-25T14:11:33.731Z,42.92
2022-07-25T14:15:38.680Z,42.97
2022-07-25T14:19:44.123Z,42.97
2022-07-25T14:23:51.537Z,42.92
2022-07-25T14:27:59.066Z,42.85
2022-07-25T14:32:05.434Z,42.82
2022-07-25T14:36:13.397Z,42.89
2022-07-25T14:40:19.734Z,42.96
2022-07-25T14:44:27.301Z,43.03
2022-07-25T14:48:34.259Z,43.10
2022-07-25T14:52:39.526Z,43.20
2022-07-25T14:56:47.225Z,43.34
2022-07-25T15:00:53.835Z,43.45
2022-07-25T15:04:59.230Z,43.48
2022-07-25T15:09:05.978Z,43.57
2022-07-25T15:17:38.891Z,43.66
2022-07-25T15:21:47.291Z,43.55
2022-07-25T15:26:02.312Z,43.37
2022-07-25T15:30:10.046Z,43.22
2022-07-25T15:34:16.987Z,43.09
2022-07-25T15:38:22.661Z,42.99
2022-07-25T15:42:29.369Z,42.92
2022-07-25T15:46:34.362Z,42.90
2022-07-25T15:50:44.563Z,42.89
2022-07-25T15:54:50.278Z,42.82
2022-07-25T15:58:56.845Z,42.73
2022-07-25T16:03:02.090Z,42.68
2022-07-25T16:07:10.196Z,42.63
2022-07-25T16:11:16.558Z,42.55
2022-07-25T16:15:22.987Z,42.47
2022-07-25T16:19:29.021Z,42.34
2022-07-25T16:23:37.867Z,42.17
2022-07-25T16:27:42.400Z,41.98
2022-07-25T16:31:46.601Z,41.78
2022-07-25T16:35:51.169Z,41.57
2022-07-25T16:39:56.733Z,41.36
2022-07-25T16:44:00.995Z,41.16
2022-07-25T16:48:08.524Z,40.98
2022-07-25T16:52:13.332Z,40.81
2022-07-25T16:56:19.790Z,40.68
2022-07-25T17:00:23.726Z,40.56
2022-07-25T17:04:29.785Z,40.44
2022-07-25T17:08:33.609Z,40.32
2022-07-25T17:12:38.549Z,40.16
2022-07-25T17:16:45.347Z,39.96
2022-07-25T17:20:50.834Z,39.79
2022-07-25T17:24:57.386Z,39.60
2022-07-25T17:29:03.183Z,39.44
2022-07-25T17:33:11.593Z,39.23
2022-07-25T17:37:15.214Z,39.01
2022-07-25T17:41:19.171Z,38.77
2022-07-25T17:45:26.972Z,38.53
2022-07-25T17:49:32.240Z,38.26
2022-07-25T17:53:35.982Z,37.99
2022-07-25T17:57:41.897Z,37.73
2022-07-25T18:01:47.117Z,37.44
2022-07-25T18:05:53.289Z,37.17
2022-07-25T18:09:58.597Z,36.89
2022-07-25T18:14:05.117Z,36.63
2022-07-25T18:18:18.475Z,36.36
2022-07-25T18:22:25.588Z,36.07
2022-07-25T18:26:31.975Z,35.78
2022-07-25T18:30:37.053Z,35.49
2022-07-25T18:34:44.200Z,35.21
2022-07-25T18:38:47.998Z,34.93
2022-07-25T18:42:53.889Z,34.66
2022-07-25T18:47:00.826Z,34.40
2022-07-25T18:51:09.546Z,34.17
2022-07-25T18:55:13.421Z,33.91
2022-07-25T18:59:16.969Z,33.67
2022-07-25T19:03:20.571Z,33.46
2022-07-25T19:07:26.519Z,33.34
2022-07-25T19:11:29.529Z,33.24
2022-07-25T19:15:33.276Z,33.12
2022-07-25T19:19:37.081Z,33.01
2022-07-25T19:23:44.678Z,32.88
2022-07-25T19:27:52.194Z,32.73
2022-07-25T19:31:55.750Z,32.56
2022-07-25T19:35:59.374Z,32.36
2022-07-25T19:40:04.610Z,32.20
2022-07-25T19:44:08.786Z,32.04
2022-07-25T19:48:13.222Z,31.90
2022-07-25T19:52:16.862Z,31.76
2022-07-25T19:56:21.426Z,31.64
2022-07-25T20:00:24.821Z,31.52
2022-07-25T20:04:28.620Z,31.39
2022-07-25T20:08:32.370Z,31.26
2022-07-25T20:12:37.291Z,31.11
2022-07-25T20:16:41.419Z,30.96
2022-07-25T20:20:45.378Z,30.81
2022-07-25T20:24:49.150Z,30.67
2022-07-25T20:28:53.891Z,30.56
2022-07-25T20:32:57.343Z,30.44
2022-07-25T20:37:00.888Z,30.35
2022-07-25T20:41:04.474Z,30.27
2022-07-25T20:45:11.633Z,30.17
2022-07-25T20:49:17.730Z,30.10
2022-07-25T20:53:21.567Z,30.05
2022-07-25T20:57:24.807Z,30.00
2022-07-25T21:01:30.007Z,29.94
2022-07-25T21:05:33.871Z,29.86
2022-07-25T21:09:37.023Z,29.79
2022-07-25T21:13:40.648Z,29.74
2022-07-25T21:17:45.893Z,29.69
2022-07-25T21:21:49.509Z,29.62
2022-07-25T21:25:52.659Z,29.56
2022-07-25T21:29:56.169Z,29.49
2022-07-25T21:34:01.950Z,29.41
2022-07-25T21:38:05.182Z,29.27
2022-07-25T21:42:10.485Z,29.18
2022-07-25T21:46:17.047Z,29.07
2022-07-25T21:50:43.586Z,28.98
2022-07-25T21:54:47.773Z,28.87
2022-07-25T21:58:51.392Z,28.77
2022-07-25T22:02:54.957Z,28.72
2022-07-25T22:06:59.864Z,28.68
2022-07-25T22:11:16.272Z,28.65
2022-07-25T22:15:27.201Z,28.64
2022-07-25T22:19:30.709Z,28.64
2022-07-25T22:23:35.275Z,28.65
2022-07-25T22:27:40.191Z,28.64
2022-07-25T22:31:45.007Z,28.60
2022-07-25T22:35:48.106Z,28.64
2022-07-25T22:39:56.521Z,28.64
2022-07-25T22:44:02.815Z,28.67
2022-07-25T22:48:06.221Z,28.70
2022-07-25T22:52:10.119Z,28.70
2022-07-25T22:56:15.293Z,28.74
2022-07-25T23:00:19.126Z,28.80
2022-07-25T23:04:22.489Z,28.81
2022-07-25T23:08:26.179Z,28.76
2022-07-25T23:12:31.120Z,28.76
2022-07-25T23:16:43.523Z,28.79
2022-07-25T23:20:48.152Z,28.74
2022-07-25T23:24:52.353Z,28.53
2022-07-25T23:28:57.523Z,28.29
2022-07-25T23:33:00.610Z,28.04
2022-07-25T23:37:04.707Z,27.66
2022-07-25T23:41:08.349Z,27.32
2022-07-25T23:45:12.966Z,26.59
2022-07-25T23:49:16.657Z,25.99
2022-07-25T23:53:20.248Z,25.56
2022-07-25T23:57:23.406Z,25.22
